Weather at Frankfurt am Main Airport

Public forecast

Using degrees Celsius for public forecast. Weather courtesy of forecast.io.

Current aviation weather report (METAR) for Frankfurt am Main Airport

Retrieved 2021/11/27 14:20 UTC (22 minutes ago):

EDDF 271420Z 22007KT 9999 FEW018 05/M01 Q0993 NOSIG

Aviation forecast (TAF) for Frankfurt am Main Airport

Retrieved 2021/11/27 12:27 UTC (2 hours ago):

TAF TAF EDDF 271100Z 2712/2818 21007KT 9999 SCT012 BKN020 TEMPO 2712/2718 SCT020 BECMG 2717/2720 VRB03KT BECMG 2800/2802 BKN012 PROB30 TEMPO 2802/2807 4000 -SG BR BKN005 PROB30 TEMPO 2807/2810 4000 -RASN BKN008 BECMG 2811/2813 25005KT PROB30 TEMPO 2815/2818 4000 -SHRASN BKN015TCU